Time;durP1;ratioP1;P1;durP2;ratioP2;P2;SDS_P1;SDS_P2;PMS_P1;PMS_P2;Temp;Humidity;BMP_temperature;BMP_pressure;BME280_temperature;BME280_humidity;BME280_pressure;Samples;Min_cycle;Max_cycle;Signal;HPM_P1;HPM_P2
2023/03/29 00:02:32;;;;;;;5.00;1.00;;;16.80;1.00;;;;;;5031523;28;20382;-35
2023/03/29 00:05:00;;;;;;;3.15;0.95;;;16.70;1.00;;;;;;5031705;28;20045;-35
2023/03/29 00:07:29;;;;;;;3.38;0.82;;;16.70;1.00;;;;;;5031895;28;20050;-35
2023/03/29 00:09:56;;;;;;;2.22;1.25;;;16.70;1.00;;;;;;5031876;28;20124;-35
2023/03/29 00:12:23;;;;;;;2.65;1.05;;;16.70;1.00;;;;;;5013986;28;20053;-35
2023/03/29 00:14:50;;;;;;;1.25;0.70;;;16.70;1.00;;;;;;5031527;28;20498;-35
2023/03/29 00:17:17;;;;;;;1.70;0.52;;;16.60;1.00;;;;;;5032971;28;20041;-35
2023/03/29 00:19:45;;;;;;;3.00;1.38;;;16.60;1.00;;;;;;5023706;28;20046;-35
2023/03/29 00:22:12;;;;;;;1.25;0.80;;;16.60;1.00;;;;;;5015894;28;20037;-35
2023/03/29 00:24:39;;;;;;;2.08;0.77;;;16.60;1.00;;;;;;5015683;28;20052;-35
2023/03/29 00:27:06;;;;;;;1.30;0.70;;;16.60;1.00;;;;;;5016071;28;20053;-35
2023/03/29 00:29:33;;;;;;;1.08;0.50;;;16.60;1.00;;;;;;5015933;28;20045;-35
2023/03/29 00:32:00;;;;;;;1.58;0.90;;;16.60;1.00;;;;;;5016075;28;20042;-35
2023/03/29 00:34:30;;;;;;;1.80;0.80;;;16.50;1.00;;;;;;5015213;28;20493;-35
2023/03/29 00:36:57;;;;;;;3.67;0.80;;;16.50;1.00;;;;;;5015730;28;20050;-35
2023/03/29 00:39:25;;;;;;;2.67;0.70;;;16.50;1.00;;;;;;4998245;28;20085;-35
2023/03/29 00:41:52;;;;;;;1.73;0.60;;;16.50;1.00;;;;;;5015869;28;20070;-35
2023/03/29 00:44:56;;;;;;;2.88;0.95;;;16.50;1.00;;;;;;4997319;28;20042;-35
2023/03/29 00:47:28;;;;;;;3.67;0.93;;;16.50;1.00;;;;;;5015817;28;20452;-35
2023/03/29 00:50:03;;;;;;;4.38;0.90;;;16.40;1.00;;;;;;5015794;28;20417;-35
2023/03/29 00:52:32;;;;;;;3.45;1.58;;;16.50;1.00;;;;;;5015107;28;20405;-35
2023/03/29 00:55:05;;;;;;;1.25;0.73;;;16.50;1.00;;;;;;4997657;28;20567;-35
2023/03/29 00:57:32;;;;;;;3.80;0.90;;;16.40;1.00;;;;;;4997706;28;20056;-35
2023/03/29 01:00:03;;;;;;;1.35;0.40;;;16.40;1.00;;;;;;5015491;28;20048;-35
2023/03/29 01:02:33;;;;;;;2.13;0.90;;;16.40;1.00;;;;;;5015112;28;20057;-35
2023/03/29 01:05:14;;;;;;;1.33;0.68;;;16.40;1.00;;;;;;5014995;28;20030;-35
2023/03/29 01:07:46;;;;;;;1.50;0.77;;;16.40;1.00;;;;;;4997794;28;20049;-35
2023/03/29 01:10:20;;;;;;;1.83;0.68;;;16.40;1.00;;;;;;5015423;28;20436;-35
2023/03/29 01:12:52;;;;;;;1.95;0.73;;;16.40;1.00;;;;;;4996940;28;20520;-35
2023/03/29 01:15:24;;;;;;;3.22;1.00;;;16.40;1.00;;;;;;4997603;28;20046;-35
2023/03/29 01:17:52;;;;;;;1.88;0.75;;;16.40;1.00;;;;;;4997602;28;20049;-36
2023/03/29 01:20:30;;;;;;;1.60;0.82;;;16.30;1.00;;;;;;5015141;28;20104;-35
2023/03/29 01:23:25;;;;;;;2.97;0.77;;;16.30;1.00;;;;;;4996790;28;20108;-35
2023/03/29 01:26:08;;;;;;;2.22;0.88;;;16.30;1.00;;;;;;4997353;28;20046;-35
2023/03/29 01:28:49;;;;;;;1.77;0.80;;;16.30;1.00;;;;;;4997321;28;20108;-35
2023/03/29 01:31:24;;;;;;;1.45;0.88;;;16.30;1.00;;;;;;4997388;28;20054;-35
2023/03/29 01:33:59;;;;;;;3.45;1.38;;;16.30;1.00;;;;;;4996561;28;20042;-35
2023/03/29 01:36:38;;;;;;;1.05;0.60;;;16.30;1.00;;;;;;4997282;28;20617;-35
2023/03/29 01:39:06;;;;;;;2.28;1.00;;;16.20;1.00;;;;;;4997170;28;20491;-35
2023/03/29 01:41:47;;;;;;;1.80;0.77;;;16.20;1.00;;;;;;5015115;28;20034;-35
2023/03/29 01:44:19;;;;;;;2.78;0.68;;;16.20;1.00;;;;;;5013960;28;20044;-35
2023/03/29 01:46:52;;;;;;;2.72;0.85;;;16.20;1.00;;;;;;4997123;28;20265;-35
2023/03/29 01:49:34;;;;;;;2.10;0.60;;;16.20;1.00;;;;;;4996960;28;20069;-35
2023/03/29 01:52:15;;;;;;;1.73;0.70;;;16.10;1.00;;;;;;4996967;28;20045;-35
2023/03/29 01:54:55;;;;;;;2.22;0.98;;;16.10;1.00;;;;;;5014214;28;20046;-35
2023/03/29 01:57:24;;;;;;;1.77;1.08;;;16.10;1.00;;;;;;4997001;28;20410;-35
2023/03/29 01:59:53;;;;;;;2.10;0.82;;;16.10;1.00;;;;;;5014442;28;20046;-35
2023/03/29 02:02:23;;;;;;;2.97;1.05;;;16.10;1.00;;;;;;4996388;28;20065;-35
2023/03/29 02:04:53;;;;;;;2.05;0.85;;;16.10;1.00;;;;;;5013939;28;20137;-35
2023/03/29 02:07:25;;;;;;;2.15;0.77;;;16.10;1.00;;;;;;4996460;28;20049;-35
2023/03/29 02:09:53;;;;;;;2.55;1.05;;;16.10;1.00;;;;;;4996710;28;20082;-34
2023/03/29 02:12:20;;;;;;;2.90;0.95;;;16.10;1.00;;;;;;4996142;28;20056;-35
2023/03/29 02:14:46;;;;;;;2.08;0.82;;;16.00;1.00;;;;;;4996212;28;20096;-35
2023/03/29 02:17:22;;;;;;;1.65;0.75;;;16.00;1.00;;;;;;4996464;28;20136;-35
2023/03/29 02:20:26;;;;;;;2.13;1.02;;;16.00;1.00;;;;;;4996248;28;20046;-35
2023/03/29 02:23:08;;;;;;;4.70;1.27;;;16.00;1.00;;;;;;4986542;28;20120;-35
2023/03/29 02:25:36;;;;;;;2.53;0.98;;;16.00;1.00;;;;;;4996373;28;20050;-35
2023/03/29 02:28:05;;;;;;;1.98;1.30;;;16.00;1.00;;;;;;4996395;28;20053;-35
2023/03/29 02:30:58;;;;;;;2.60;1.05;;;16.00;1.00;;;;;;4996115;28;20041;-35
2023/03/29 02:33:32;;;;;;;2.67;1.20;;;16.00;1.00;;;;;;4995424;28;20509;-35
2023/03/29 02:36:06;;;;;;;2.97;1.02;;;16.00;1.00;;;;;;4996000;28;20048;-35
2023/03/29 02:38:35;;;;;;;2.30;0.93;;;16.00;1.00;;;;;;4996209;28;20088;-35
2023/03/29 02:41:02;;;;;;;2.30;1.02;;;15.90;1.00;;;;;;4995528;28;20464;-35
2023/03/29 02:43:31;;;;;;;2.95;0.73;;;15.90;1.00;;;;;;4995191;28;20052;-35
2023/03/29 02:45:58;;;;;;;3.08;1.00;;;15.90;1.00;;;;;;5013507;28;20045;-35
2023/03/29 02:48:28;;;;;;;2.47;1.23;;;15.90;1.00;;;;;;4995793;28;20042;-35
2023/03/29 02:50:59;;;;;;;4.38;1.13;;;15.90;1.00;;;;;;4995904;28;20137;-35
2023/03/29 02:53:33;;;;;;;2.97;1.00;;;15.90;1.00;;;;;;5012702;28;20544;-35
2023/03/29 02:56:01;;;;;;;1.73;0.85;;;15.90;1.00;;;;;;4995682;28;20129;-35
2023/03/29 02:58:28;;;;;;;1.98;1.10;;;15.90;1.00;;;;;;4995604;28;20129;-35
2023/03/29 03:00:57;;;;;;;3.10;0.85;;;15.80;1.00;;;;;;4995687;28;20046;-35
2023/03/29 03:03:24;;;;;;;2.70;1.02;;;15.80;1.00;;;;;;4995015;28;20041;-35
2023/03/29 03:05:52;;;;;;;4.63;1.00;;;15.80;1.00;;;;;;4995437;28;20042;-35
2023/03/29 03:08:19;;;;;;;5.63;1.30;;;15.80;1.00;;;;;;4995440;28;20475;-35
2023/03/29 03:10:47;;;;;;;1.42;0.75;;;15.80;1.00;;;;;;4995367;28;20042;-35
2023/03/29 03:13:14;;;;;;;3.35;1.27;;;15.80;1.00;;;;;;4994622;28;20053;-35
2023/03/29 03:15:41;;;;;;;3.75;1.42;;;15.80;1.00;;;;;;4995421;28;20232;-35
2023/03/29 03:18:09;;;;;;;2.65;0.77;;;15.80;1.00;;;;;;4979078;28;20442;-35
2023/03/29 03:20:36;;;;;;;2.25;1.05;;;15.80;1.00;;;;;;4995291;28;20421;-35
2023/03/29 03:23:03;;;;;;;1.85;1.27;;;15.80;1.00;;;;;;4994436;28;20498;-35
2023/03/29 03:25:30;;;;;;;2.65;1.15;;;15.70;1.00;;;;;;5012815;28;20034;-35
2023/03/29 03:27:57;;;;;;;5.28;1.50;;;15.70;1.00;;;;;;5012754;28;20092;-35
2023/03/29 03:30:24;;;;;;;2.50;1.17;;;15.70;1.00;;;;;;5012674;28;20042;-35
2023/03/29 03:33:06;;;;;;;3.40;1.80;;;15.70;1.00;;;;;;5012198;28;20606;-34
2023/03/29 03:35:55;;;;;;;2.47;1.27;;;15.70;1.00;;;;;;5013181;28;20060;-34
2023/03/29 03:38:22;;;;;;;4.93;1.30;;;15.70;1.00;;;;;;4994895;28;20569;-35
2023/03/29 03:40:57;;;;;;;4.07;1.05;;;15.70;1.00;;;;;;4995000;28;20485;-35
2023/03/29 03:43:24;;;;;;;5.00;1.90;;;15.70;1.00;;;;;;4978120;28;20081;-35
2023/03/29 03:45:51;;;;;;;4.03;1.52;;;15.70;1.00;;;;;;4994907;28;20502;-35
2023/03/29 03:48:22;;;;;;;2.80;1.17;;;15.70;1.00;;;;;;4994800;28;20046;-35
2023/03/29 03:50:57;;;;;;;3.30;1.40;;;15.60;1.00;;;;;;4994594;28;20523;-35
2023/03/29 03:53:31;;;;;;;2.47;1.08;;;15.60;1.00;;;;;;4993684;28;20480;-35
2023/03/29 03:56:13;;;;;;;2.17;0.98;;;15.60;1.00;;;;;;5012557;28;20057;-35
2023/03/29 03:58:58;;;;;;;5.78;1.40;;;15.60;1.00;;;;;;5012434;28;20486;-42
2023/03/29 04:01:26;;;;;;;2.17;1.00;;;15.60;1.00;;;;;;4994596;28;20460;-41
2023/03/29 04:04:03;;;;;;;4.57;1.20;;;15.60;1.00;;;;;;4993862;28;20050;-43
2023/03/29 04:06:31;;;;;;;3.30;1.10;;;15.60;1.00;;;;;;4994570;28;20458;-42
2023/03/29 04:09:22;;;;;;;3.30;1.25;;;15.60;1.00;;;;;;4974944;28;20116;-42
2023/03/29 04:12:00;;;;;;;7.20;1.83;;;15.60;1.00;;;;;;4994362;28;20046;-42
2023/03/29 04:14:30;;;;;;;4.88;1.33;;;15.60;1.00;;;;;;4993582;28;20061;-41
2023/03/29 04:17:04;;;;;;;7.00;1.60;;;15.60;1.00;;;;;;4994393;28;20046;-41
2023/03/29 04:19:45;;;;;;;2.50;1.00;;;15.60;1.00;;;;;;5012135;28;20050;-41
2023/03/29 04:22:12;;;;;;;4.80;1.67;;;15.50;1.00;;;;;;5011894;28;20092;-42
2023/03/29 04:24:39;;;;;;;5.03;1.80;;;15.60;1.00;;;;;;4993924;28;20046;-41
2023/03/29 04:27:26;;;;;;;4.95;1.75;;;15.50;1.00;;;;;;4981481;28;20058;-41
2023/03/29 04:29:55;;;;;;;5.53;1.58;;;15.50;1.00;;;;;;4994467;28;20387;-39
2023/03/29 04:32:39;;;;;;;8.05;1.95;;;15.50;1.00;;;;;;4993577;28;20061;-40
2023/03/29 04:35:09;;;;;;;5.13;1.77;;;15.50;1.00;;;;;;4994315;28;20560;-39
2023/03/29 04:37:39;;;;;;;12.38;1.77;;;15.50;1.00;;;;;;4994098;28;20038;-38
2023/03/29 04:40:08;;;;;;;4.63;1.40;;;15.50;1.00;;;;;;4994425;28;20439;-39
2023/03/29 04:42:50;;;;;;;4.28;2.28;;;15.50;1.00;;;;;;4993270;28;20049;-40
2023/03/29 04:45:18;;;;;;;3.38;1.40;;;15.50;1.00;;;;;;4994283;28;20523;-39
2023/03/29 04:48:04;;;;;;;4.20;1.48;;;15.50;1.00;;;;;;4994186;28;20060;-40
2023/03/29 04:50:32;;;;;;;6.47;1.42;;;15.50;1.00;;;;;;4994350;28;20515;-39
2023/03/29 04:52:59;;;;;;;6.22;1.83;;;15.50;1.00;;;;;;4993489;28;20050;-35
2023/03/29 04:55:27;;;;;;;2.67;1.00;;;15.40;1.00;;;;;;4994125;28;20140;-40
2023/03/29 04:58:00;;;;;;;6.97;1.75;;;15.40;1.00;;;;;;4993898;28;20077;-41
2023/03/29 05:00:30;;;;;;;6.05;1.67;;;15.40;1.00;;;;;;4993794;28;20050;-34
2023/03/29 05:03:24;;;;;;;3.63;1.60;;;15.40;1.00;;;;;;4994680;28;20050;-40
2023/03/29 05:06:05;;;;;;;4.10;1.67;;;15.40;1.00;;;;;;4997795;28;20070;-39
2023/03/29 05:08:38;;;;;;;4.43;2.03;;;15.40;1.00;;;;;;4997661;28;20050;-39
2023/03/29 05:11:40;;;;;;;7.43;1.77;;;15.40;1.00;;;;;;5000286;28;20133;-39
2023/03/29 05:14:08;;;;;;;7.10;1.45;;;15.40;1.00;;;;;;4996923;28;20141;-38
2023/03/29 05:16:36;;;;;;;11.55;1.95;;;15.40;1.00;;;;;;4997461;28;20509;-36
2023/03/29 05:19:04;;;;;;;14.93;1.75;;;15.40;1.00;;;;;;4997348;28;20049;-37
2023/03/29 05:21:35;;;;;;;5.93;2.08;;;15.40;1.00;;;;;;4997538;28;20099;-39
2023/03/29 05:24:06;;;;;;;5.55;2.67;;;15.30;1.00;;;;;;4996782;28;20041;-40
2023/03/29 05:26:51;;;;;;;4.30;2.33;;;15.30;1.00;;;;;;5015089;28;20057;-40
2023/03/29 05:29:19;;;;;;;4.72;1.58;;;15.30;1.00;;;;;;4997264;28;20100;-38
2023/03/29 05:31:52;;;;;;;5.88;1.70;;;15.30;1.00;;;;;;4997333;28;20046;-40
2023/03/29 05:34:19;;;;;;;3.38;1.60;;;15.30;1.00;;;;;;4996358;28;20046;-37
2023/03/29 05:36:50;;;;;;;4.90;1.67;;;15.30;1.00;;;;;;4981619;28;20045;-39
2023/03/29 05:39:18;;;;;;;3.17;1.58;;;15.30;1.00;;;;;;4990402;28;20081;-38
2023/03/29 05:41:46;;;;;;;6.93;1.52;;;15.30;1.00;;;;;;4990043;28;20045;-39
2023/03/29 05:44:45;;;;;;;2.45;1.30;;;15.30;1.00;;;;;;4973958;28;20053;-39
2023/03/29 05:47:17;;;;;;;5.22;1.92;;;15.30;1.00;;;;;;4996833;28;20077;-38
2023/03/29 05:49:45;;;;;;;8.18;1.63;;;15.30;1.00;;;;;;4996823;28;20050;-39
2023/03/29 05:52:14;;;;;;;4.10;1.83;;;15.30;1.00;;;;;;5014300;28;20092;-41
2023/03/29 05:54:41;;;;;;;5.03;1.67;;;15.20;1.00;;;;;;4996322;28;20501;-41
2023/03/29 05:57:10;;;;;;;3.25;1.83;;;15.20;1.00;;;;;;4996739;28;20164;-40
2023/03/29 05:59:38;;;;;;;5.65;1.98;;;15.20;1.00;;;;;;4980521;28;20069;-39
2023/03/29 06:02:06;;;;;;;4.65;1.73;;;15.20;1.00;;;;;;4996342;28;20132;-37
2023/03/29 06:04:38;;;;;;;9.10;1.98;;;15.20;1.00;;;;;;4995874;28;20048;-39
2023/03/29 06:07:26;;;;;;;4.38;1.67;;;15.20;1.00;;;;;;5003595;28;20456;-39
2023/03/29 06:10:14;;;;;;;2.55;1.35;;;15.20;1.00;;;;;;5000033;28;20065;-39
2023/03/29 06:12:48;;;;;;;5.90;1.30;;;15.20;1.00;;;;;;4995836;28;20050;-39
2023/03/29 06:15:17;;;;;;;6.93;1.45;;;15.20;1.00;;;;;;4995089;28;20120;-38
2023/03/29 06:17:47;;;;;;;2.80;1.13;;;15.20;1.00;;;;;;4996107;28;20513;-40
2023/03/29 06:20:15;;;;;;;4.05;1.70;;;15.20;1.00;;;;;;5012498;28;20124;-40
2023/03/29 06:22:47;;;;;;;3.77;1.77;;;15.20;1.00;;;;;;5011937;28;20045;-39
2023/03/29 06:25:14;;;;;;;7.03;1.67;;;15.20;1.00;;;;;;5013820;28;20064;-40
2023/03/29 06:27:45;;;;;;;5.10;2.17;;;15.20;1.00;;;;;;5012416;28;20049;-42
2023/03/29 06:30:15;;;;;;;5.70;1.80;;;15.20;1.00;;;;;;4995972;28;20053;-39
2023/03/29 06:32:45;;;;;;;6.32;1.60;;;15.20;1.00;;;;;;5011842;28;20073;-41
2023/03/29 06:35:21;;;;;;;3.20;1.30;;;15.20;1.00;;;;;;4996015;28;20049;-42
2023/03/29 06:37:54;;;;;;;4.70;1.40;;;15.20;1.00;;;;;;5012319;28;20053;-41
2023/03/29 06:40:30;;;;;;;4.68;1.70;;;15.10;1.00;;;;;;4995942;28;20420;-39
2023/03/29 06:42:58;;;;;;;10.18;2.25;;;15.10;1.00;;;;;;5012896;28;20046;-42
2023/03/29 06:45:43;;;;;;;7.22;1.42;;;15.10;1.00;;;;;;5013789;28;20048;-42
2023/03/29 06:48:19;;;;;;;13.43;1.25;;;15.10;1.00;;;;;;4995887;28;20258;-38
2023/03/29 06:50:47;;;;;;;4.10;1.70;;;15.10;1.00;;;;;;5011901;28;20069;-42
2023/03/29 06:53:15;;;;;;;3.00;1.30;;;15.10;1.00;;;;;;4995004;28;20045;-41
2023/03/29 06:55:51;;;;;;;4.03;1.77;;;15.10;1.00;;;;;;4995718;28;20409;-38
2023/03/29 06:58:39;;;;;;;4.97;2.20;;;15.10;1.00;;;;;;5012462;28;20049;-42
2023/03/29 07:01:27;;;;;;;7.93;1.40;;;15.10;1.00;;;;;;5011831;28;20132;-42
2023/03/29 07:04:06;;;;;;;4.90;2.50;;;15.10;1.00;;;;;;4996100;28;20074;-40
2023/03/29 07:06:57;;;;;;;7.55;1.45;;;15.10;1.00;;;;;;5011806;28;20046;-42
2023/03/29 07:09:25;;;;;;;4.97;1.73;;;15.10;1.00;;;;;;4995344;28;20593;-41
2023/03/29 07:12:11;;;;;;;3.53;1.38;;;15.10;1.00;;;;;;5013075;28;20177;-39
2023/03/29 07:14:38;;;;;;;3.75;1.35;;;15.10;1.00;;;;;;5012366;28;20124;-40
2023/03/29 07:17:05;;;;;;;5.38;1.20;;;15.10;1.00;;;;;;4995323;28;20042;-40
2023/03/29 07:19:34;;;;;;;5.13;1.52;;;15.10;1.00;;;;;;4995089;28;20041;-41
2023/03/29 07:22:33;;;;;;;4.78;1.63;;;15.10;1.00;;;;;;5000184;28;20052;-35
2023/03/29 07:25:00;;;;;;;5.85;2.00;;;15.10;1.00;;;;;;4994699;28;20038;-39
2023/03/29 07:27:28;;;;;;;3.95;1.55;;;15.10;1.00;;;;;;4994855;28;20054;-40
2023/03/29 07:30:02;;;;;;;5.10;1.67;;;15.10;1.00;;;;;;5011407;28;20054;-41
2023/03/29 07:32:35;;;;;;;6.22;1.92;;;15.10;1.00;;;;;;5010924;28;20052;-37
2023/03/29 07:35:25;;;;;;;4.03;1.58;;;15.10;1.00;;;;;;4994955;28;20073;-38
2023/03/29 07:37:54;;;;;;;3.83;1.40;;;15.10;1.00;;;;;;5011131;28;20112;-40
2023/03/29 07:40:22;;;;;;;3.00;1.20;;;15.10;1.00;;;;;;4994906;28;20422;-40
2023/03/29 07:42:55;;;;;;;;;;;15.00;1.00;;;;;;5012158;28;20053;-38
2023/03/29 07:45:26;;;;;;;4.25;1.30;;;15.00;1.00;;;;;;4994737;28;20312;-41
2023/03/29 07:47:59;;;;;;;4.93;1.48;;;15.00;1.00;;;;;;5011135;28;20092;-41
2023/03/29 07:50:33;;;;;;;6.57;1.48;;;15.00;1.00;;;;;;5011056;28;20049;-39
2023/03/29 07:53:03;;;;;;;4.72;1.25;;;15.00;1.00;;;;;;4993945;28;20052;-41
2023/03/29 07:55:31;;;;;;;4.22;1.60;;;15.00;1.00;;;;;;4994586;28;20140;-37
2023/03/29 07:58:24;;;;;;;4.13;1.55;;;15.00;1.00;;;;;;5009829;28;20120;-40
2023/03/29 08:00:51;;;;;;;5.25;1.27;;;15.00;1.00;;;;;;4994617;28;20038;-39
2023/03/29 08:03:45;;;;;;;5.35;1.08;;;15.00;1.00;;;;;;4993628;28;20049;-42
2023/03/29 08:06:12;;;;;;;4.20;1.45;;;15.00;1.00;;;;;;4994440;28;20037;-42
2023/03/29 08:08:39;;;;;;;5.32;1.63;;;15.00;1.00;;;;;;5010887;28;20076;-39
2023/03/29 08:11:10;;;;;;;7.65;2.30;;;15.00;1.00;;;;;;4994357;28;20072;-42
2023/03/29 08:13:51;;;;;;;2.97;1.08;;;15.00;1.00;;;;;;4993772;28;20104;-39
2023/03/29 08:16:36;;;;;;;3.58;1.35;;;15.00;1.00;;;;;;5012099;28;20061;-39
2023/03/29 08:19:09;;;;;;;4.28;1.13;;;15.00;1.00;;;;;;4994297;28;20045;-38
2023/03/29 08:21:47;;;;;;;3.78;1.50;;;15.00;1.00;;;;;;5010892;28;20480;-42
2023/03/29 08:24:19;;;;;;;3.67;1.05;;;15.00;1.00;;;;;;4993676;28;20064;-41
2023/03/29 08:26:51;;;;;;;7.18;1.80;;;15.00;1.00;;;;;;5010653;28;20045;-41
2023/03/29 08:29:19;;;;;;;6.00;1.52;;;15.00;1.00;;;;;;5010580;28;20407;-41
2023/03/29 08:31:46;;;;;;;7.10;1.38;;;15.00;1.00;;;;;;4994413;28;20096;-41
2023/03/29 08:34:13;;;;;;;4.13;1.30;;;15.00;1.00;;;;;;4993575;28;20046;-42
2023/03/29 08:37:03;;;;;;;2.78;1.17;;;15.00;1.00;;;;;;5001087;28;20089;-37
2023/03/29 08:39:37;;;;;;;1.48;0.85;;;15.00;1.00;;;;;;4997388;28;20044;-41
2023/03/29 08:42:47;;;;;;;2.47;0.80;;;15.00;1.00;;;;;;4983351;28;20046;-41
2023/03/29 08:45:28;;;;;;;6.78;2.30;;;15.00;1.00;;;;;;4998021;28;20501;-38
2023/03/29 08:48:11;;;;;;;5.45;2.15;;;15.00;1.00;;;;;;5014390;28;20053;-41
2023/03/29 08:50:49;;;;;;;3.97;1.20;;;15.00;1.00;;;;;;5015705;28;20084;-37
2023/03/29 08:53:21;;;;;;;8.23;1.45;;;15.00;1.00;;;;;;5013670;28;20046;-37
2023/03/29 08:56:19;;;;;;;4.07;1.23;;;15.00;1.00;;;;;;5012483;28;20461;-39
2023/03/29 08:59:23;;;;;;;3.90;1.08;;;15.00;1.00;;;;;;4993290;28;20166;-39
2023/03/29 09:01:54;;;;;;;5.15;1.10;;;15.00;1.00;;;;;;4997740;28;20053;-42
2023/03/29 09:04:26;;;;;;;5.53;1.35;;;15.00;1.00;;;;;;5013487;28;20050;-36
2023/03/29 09:07:11;;;;;;;8.80;1.65;;;15.00;1.00;;;;;;5014149;28;20069;-36
2023/03/29 09:09:42;;;;;;;4.22;1.52;;;15.00;1.00;;;;;;4997649;28;20060;-41
2023/03/29 09:12:39;;;;;;;5.47;1.40;;;15.00;1.00;;;;;;4997360;28;20104;-37
2023/03/29 09:15:38;;;;;;;3.95;1.38;;;15.00;1.00;;;;;;5013710;28;20065;-38
2023/03/29 09:22:29;;;;;;;4.30;1.48;;;15.00;1.00;;;;;;4994871;28;20045;-41
2023/03/29 09:25:31;;;;;;;4.10;1.25;;;15.00;1.00;;;;;;5013153;28;20707;-42
2023/03/29 09:28:20;;;;;;;4.32;1.60;;;15.00;1.00;;;;;;4973404;28;20134;-41
2023/03/29 09:31:03;;;;;;;7.05;1.95;;;15.00;1.00;;;;;;4996721;28;20050;-38
2023/03/29 09:33:42;;;;;;;7.50;1.73;;;15.00;1.00;;;;;;4996339;28;20061;-38
2023/03/29 09:36:42;;;;;;;5.60;1.88;;;15.00;1.00;;;;;;5013358;28;20053;-37
2023/03/29 09:39:13;;;;;;;7.50;1.83;;;15.00;1.00;;;;;;4996994;28;20042;-41
2023/03/29 09:41:53;;;;;;;4.55;1.65;;;15.00;1.00;;;;;;5013209;28;20042;-39
2023/03/29 09:44:30;;;;;;;9.40;2.72;;;15.00;1.00;;;;;;5012758;28;20046;-40
2023/03/29 09:47:23;;;;;;;7.80;1.75;;;15.00;1.00;;;;;;5013378;28;20052;-37
2023/03/29 09:49:56;;;;;;;4.97;1.75;;;15.00;1.00;;;;;;5011840;28;20104;-38
2023/03/29 09:52:23;;;;;;;9.20;2.65;;;15.00;1.00;;;;;;5012937;28;20046;-40
2023/03/29 09:55:05;;;;;;;5.47;2.65;;;15.00;1.00;;;;;;5012906;28;20398;-41
2023/03/29 09:57:45;;;;;;;5.65;2.22;;;15.00;1.00;;;;;;5009285;22;20137;-35
2023/03/29 10:00:14;;;;;;;4.90;2.10;;;15.00;1.00;;;;;;4992049;28;20097;-34
2023/03/29 10:02:48;;;;;;;5.07;2.25;;;15.00;1.00;;;;;;4976766;28;20049;-34
2023/03/29 10:05:16;;;;;;;5.50;3.13;;;15.00;1.00;;;;;;4977213;28;20133;-34
2023/03/29 10:07:49;;;;;;;6.30;3.22;;;15.00;1.00;;;;;;4977216;28;20042;-34
2023/03/29 10:10:28;;;;;;;8.30;2.28;;;15.00;1.00;;;;;;4977051;28;20042;-34
2023/03/29 10:13:04;;;;;;;5.05;2.40;;;15.00;1.00;;;;;;4993925;28;20054;-34
2023/03/29 10:15:32;;;;;;;7.35;2.42;;;15.00;1.00;;;;;;4994515;28;20179;-34
2023/03/29 10:18:02;;;;;;;9.95;2.90;;;15.00;1.00;;;;;;4994711;28;20125;-35
2023/03/29 10:20:29;;;;;;;5.13;2.15;;;15.00;1.00;;;;;;4994319;28;20046;-34
2023/03/29 10:22:58;;;;;;;4.18;2.05;;;15.10;1.00;;;;;;4993866;28;20050;-34
2023/03/29 10:25:31;;;;;;;7.65;2.97;;;15.00;1.00;;;;;;4994181;28;20046;-34
2023/03/29 10:28:12;;;;;;;;;;;15.10;1.00;;;;;;4994816;28;20465;-35
2023/03/29 10:30:39;;;;;;;9.48;2.42;;;15.00;1.00;;;;;;4994355;28;20336;-34
2023/03/29 10:33:14;;;;;;;9.38;3.80;;;15.00;1.00;;;;;;4993458;28;20069;-34
2023/03/29 10:35:41;;;;;;;5.65;2.60;;;15.00;1.00;;;;;;4994086;28;20043;-34
2023/03/29 10:38:14;;;;;;;8.45;3.13;;;15.10;1.00;;;;;;4994084;28;20046;-34
2023/03/29 10:40:53;;;;;;;7.47;2.78;;;15.10;1.00;;;;;;4994211;28;20429;-34
2023/03/29 10:43:31;;;;;;;5.25;2.53;;;15.10;1.00;;;;;;4993282;28;20061;-34
2023/03/29 10:46:29;;;;;;;7.53;3.10;;;15.10;1.00;;;;;;4993947;28;20034;-34
2023/03/29 10:48:59;;;;;;;6.47;2.15;;;15.10;1.00;;;;;;4986383;28;20506;-34
2023/03/29 10:51:31;;;;;;;7.22;2.58;;;15.10;1.00;;;;;;4993758;28;20100;-34
2023/03/29 10:53:59;;;;;;;9.40;2.97;;;15.10;1.00;;;;;;4992992;28;20056;-34
2023/03/29 10:56:44;;;;;;;9.48;3.20;;;15.10;1.00;;;;;;4993724;28;20050;-34
2023/03/29 10:59:36;;;;;;;12.40;3.25;;;15.10;1.00;;;;;;4993488;28;20498;-34
2023/03/29 11:02:15;;;;;;;10.63;2.53;;;15.10;1.00;;;;;;4993140;28;20046;-34
2023/03/29 11:04:57;;;;;;;8.40;2.83;;;15.10;1.00;;;;;;4993121;28;20459;-34
2023/03/29 11:07:37;;;;;;;6.68;2.58;;;15.10;1.00;;;;;;4993667;28;20505;-34
2023/03/29 11:10:25;;;;;;;9.00;2.85;;;15.10;1.00;;;;;;4976119;28;20057;-34
2023/03/29 11:13:19;;;;;;;8.13;3.20;;;15.10;1.00;;;;;;4992745;28;20046;-34
2023/03/29 11:15:57;;;;;;;9.75;3.00;;;15.10;1.00;;;;;;4993792;28;20042;-34
2023/03/29 11:18:46;;;;;;;9.25;3.13;;;15.10;1.00;;;;;;4993330;28;20634;-34
2023/03/29 11:21:33;;;;;;;9.82;2.65;;;15.10;1.00;;;;;;4993225;28;20113;-34
2023/03/29 11:24:18;;;;;;;9.90;3.33;;;15.20;1.00;;;;;;4992464;28;20477;-34
2023/03/29 11:27:11;;;;;;;9.35;3.22;;;15.20;1.00;;;;;;4993570;28;20055;-34
2023/03/29 11:30:09;;;;;;;9.45;3.22;;;15.20;1.00;;;;;;4956711;28;20050;-34
2023/03/29 11:32:39;;;;;;;14.15;4.10;;;15.20;1.00;;;;;;4963137;28;20137;-34
2023/03/29 11:35:38;;;;;;;11.45;3.08;;;15.20;1.00;;;;;;4992953;28;20038;-34
2023/03/29 11:38:28;;;;;;;6.82;2.63;;;15.20;1.00;;;;;;4953343;28;20414;-34
2023/03/29 11:41:12;;;;;;;9.45;3.63;;;15.20;1.00;;;;;;4992874;28;20125;-34
2023/03/29 11:43:51;;;;;;;9.20;3.10;;;15.20;1.00;;;;;;4992063;28;20262;-34
2023/03/29 11:46:36;;;;;;;6.68;3.03;;;15.20;1.00;;;;;;4992841;28;20034;-34
2023/03/29 11:49:10;;;;;;;10.48;3.10;;;15.20;1.00;;;;;;4992804;28;20073;-34
2023/03/29 11:51:47;;;;;;;14.10;3.75;;;15.20;1.00;;;;;;4992850;28;20050;-34
2023/03/29 11:54:26;;;;;;;9.52;3.85;;;15.20;1.00;;;;;;4992103;28;20043;-34
2023/03/29 11:57:29;;;;;;;6.53;2.58;;;15.20;1.00;;;;;;4992718;28;20049;-34
2023/03/29 12:00:06;;;;;;;8.77;3.83;;;15.20;1.00;;;;;;4975051;28;20074;-35
2023/03/29 12:02:51;;;;;;;8.13;2.83;;;15.20;1.00;;;;;;4991943;28;20043;-34
2023/03/29 12:05:26;;;;;;;7.68;3.78;;;15.20;1.00;;;;;;4992790;28;20117;-34
2023/03/29 12:07:59;;;;;;;6.53;2.63;;;15.20;1.00;;;;;;4992566;28;20042;-34
2023/03/29 12:10:37;;;;;;;8.73;3.42;;;15.20;1.00;;;;;;4992599;28;20058;-34
2023/03/29 12:13:41;;;;;;;11.95;3.10;;;15.20;1.00;;;;;;4991059;28;20050;-34
2023/03/29 12:16:20;;;;;;;7.53;3.38;;;15.20;1.00;;;;;;4913249;29;20135;-34
2023/03/29 12:18:51;;;;;;;9.38;3.08;;;15.20;1.00;;;;;;4983260;28;20137;-34
2023/03/29 12:21:21;;;;;;;9.05;3.13;;;15.30;1.00;;;;;;4992448;28;20486;-34
2023/03/29 12:23:50;;;;;;;8.30;2.70;;;15.20;1.00;;;;;;4974336;28;20046;-34
2023/03/29 12:26:23;;;;;;;9.13;3.45;;;15.30;1.00;;;;;;4992345;28;20449;-34
2023/03/29 12:29:09;;;;;;;9.50;3.00;;;15.30;1.00;;;;;;4992567;28;20065;-34
2023/03/29 12:31:45;;;;;;;8.88;4.07;;;15.30;1.00;;;;;;4992485;28;20050;-34
2023/03/29 12:34:24;;;;;;;14.57;4.75;;;15.30;1.00;;;;;;4974000;28;20050;-34
2023/03/29 12:37:20;;;;;;;10.85;3.60;;;15.30;1.00;;;;;;4992766;28;20057;-34
2023/03/29 12:40:18;;;;;;;10.43;4.03;;;15.30;1.00;;;;;;4992288;28;20046;-34
2023/03/29 12:43:15;;;;;;;11.45;3.25;;;15.30;1.00;;;;;;4972494;28;20068;-35
2023/03/29 12:46:08;;;;;;;8.40;3.42;;;15.30;1.00;;;;;;4974909;28;20101;-34
2023/03/29 12:48:38;;;;;;;8.30;3.22;;;15.30;1.00;;;;;;4992199;28;20042;-34
2023/03/29 12:51:13;;;;;;;9.43;3.20;;;15.30;1.00;;;;;;4992006;28;20039;-34
2023/03/29 12:53:46;;;;;;;8.75;2.85;;;15.30;1.00;;;;;;4991481;28;20038;-34
2023/03/29 12:56:20;;;;;;;6.90;3.22;;;15.30;1.00;;;;;;4992164;28;20098;-34
2023/03/29 12:59:09;;;;;;;8.93;3.90;;;15.30;1.00;;;;;;4991911;28;20050;-34
2023/03/29 13:01:40;;;;;;;8.30;3.72;;;15.30;1.00;;;;;;4992195;28;20038;-34
2023/03/29 13:04:18;;;;;;;7.70;3.58;;;15.30;1.00;;;;;;4991582;28;20098;-34
2023/03/29 13:06:45;;;;;;;8.07;3.28;;;15.30;1.00;;;;;;4992131;28;20049;-34
2023/03/29 13:09:28;;;;;;;10.93;3.38;;;15.30;1.00;;;;;;4992014;28;20046;-34
2023/03/29 13:12:34;;;;;;;10.30;3.60;;;15.30;1.00;;;;;;4992030;28;20050;-34
2023/03/29 13:15:05;;;;;;;7.32;3.10;;;15.30;1.00;;;;;;4991656;28;20046;-34
2023/03/29 13:17:37;;;;;;;7.35;2.60;;;15.30;1.00;;;;;;4992042;28;20050;-35
2023/03/29 13:20:39;;;;;;;7.38;2.80;;;15.30;1.00;;;;;;4991738;28;20135;-34
2023/03/29 13:23:32;;;;;;;8.23;3.47;;;15.30;1.00;;;;;;4991317;28;20038;-34
2023/03/29 13:26:09;;;;;;;8.27;3.20;;;15.30;1.00;;;;;;4995356;28;20066;-34
2023/03/29 13:29:03;;;;;;;5.30;3.15;;;15.30;1.00;;;;;;4995396;28;20042;-35
2023/03/29 13:31:45;;;;;;;7.78;2.97;;;15.30;1.00;;;;;;4995352;28;20048;-34
2023/03/29 13:34:26;;;;;;;10.82;3.47;;;15.30;1.00;;;;;;4994398;28;20066;-34
2023/03/29 13:37:15;;;;;;;12.38;3.63;;;15.30;1.00;;;;;;4995328;28;20046;-34
2023/03/29 13:39:53;;;;;;;9.60;3.15;;;15.30;1.00;;;;;;4995021;28;20050;-34
2023/03/29 13:42:24;;;;;;;8.55;4.30;;;15.40;1.00;;;;;;4995239;28;20438;-34
2023/03/29 13:44:52;;;;;;;15.27;6.70;;;15.40;1.00;;;;;;4994482;28;20057;-34
2023/03/29 13:47:31;;;;;;;18.80;7.30;;;15.40;1.00;;;;;;4994975;28;20133;-34
2023/03/29 13:50:05;;;;;;;13.75;5.97;;;15.40;1.00;;;;;;4995226;28;20050;-34